sensor_id;sensor_type;location;lat;lon;timestamp;pressure;altitude;pressure_sealevel;temperature
22828;BMP180;11580;52.562;13.418;2023-02-20T00:00:46;101145.00;;;7.80
22828;BMP180;11580;52.562;13.418;2023-02-20T00:03:15;101145.00;;;7.80
22828;BMP180;11580;52.562;13.418;2023-02-20T00:05:43;101151.00;;;7.80
22828;BMP180;11580;52.562;13.418;2023-02-20T00:08:10;101153.00;;;7.80
22828;BMP180;11580;52.562;13.418;2023-02-20T00:10:38;101142.00;;;7.80
22828;BMP180;11580;52.562;13.418;2023-02-20T00:13:05;101139.00;;;7.80
22828;BMP180;11580;52.562;13.418;2023-02-20T00:15:33;101131.00;;;7.80
22828;BMP180;11580;52.562;13.418;2023-02-20T00:18:00;101134.00;;;7.80
22828;BMP180;11580;52.562;13.418;2023-02-20T00:20:28;101133.00;;;7.80
22828;BMP180;11580;52.562;13.418;2023-02-20T00:22:58;101138.00;;;7.80
22828;BMP180;11580;52.562;13.418;2023-02-20T00:25:25;101100.00;;;7.80
22828;BMP180;11580;52.562;13.418;2023-02-20T00:27:52;101128.00;;;7.80
22828;BMP180;11580;52.562;13.418;2023-02-20T00:30:22;101118.00;;;7.80
22828;BMP180;11580;52.562;13.418;2023-02-20T00:32:52;101112.00;;;7.80
22828;BMP180;11580;52.562;13.418;2023-02-20T00:35:21;101118.00;;;7.90
22828;BMP180;11580;52.562;13.418;2023-02-20T00:37:51;101110.00;;;7.90
22828;BMP180;11580;52.562;13.418;2023-02-20T00:40:22;101108.00;;;7.90
22828;BMP180;11580;52.562;13.418;2023-02-20T00:42:49;101106.00;;;7.80
22828;BMP180;11580;52.562;13.418;2023-02-20T00:45:17;101111.00;;;7.80
22828;BMP180;11580;52.562;13.418;2023-02-20T00:47:44;101106.00;;;7.80
22828;BMP180;11580;52.562;13.418;2023-02-20T00:50:15;101101.00;;;7.80
22828;BMP180;11580;52.562;13.418;2023-02-20T00:52:43;101092.00;;;7.80
22828;BMP180;11580;52.562;13.418;2023-02-20T00:55:13;101100.00;;;7.80
22828;BMP180;11580;52.562;13.418;2023-02-20T00:57:40;101086.00;;;7.80
22828;BMP180;11580;52.562;13.418;2023-02-20T01:00:17;101082.00;;;7.70
22828;BMP180;11580;52.562;13.418;2023-02-20T01:02:44;101073.00;;;7.80
22828;BMP180;11580;52.562;13.418;2023-02-20T01:05:11;101071.00;;;7.80
22828;BMP180;11580;52.562;13.418;2023-02-20T01:07:39;101080.00;;;7.80
22828;BMP180;11580;52.562;13.418;2023-02-20T01:10:07;101083.00;;;7.80
22828;BMP180;11580;52.562;13.418;2023-02-20T01:12:36;101072.00;;;7.80
22828;BMP180;11580;52.562;13.418;2023-02-20T01:15:06;101074.00;;;7.90
22828;BMP180;11580;52.562;13.418;2023-02-20T01:17:34;101070.00;;;8.00
22828;BMP180;11580;52.562;13.418;2023-02-20T01:20:01;101072.00;;;8.00
22828;BMP180;11580;52.562;13.418;2023-02-20T01:22:28;101070.00;;;8.10
22828;BMP180;11580;52.562;13.418;2023-02-20T01:24:55;101064.00;;;8.20
22828;BMP180;11580;52.562;13.418;2023-02-20T01:27:22;101060.00;;;8.30
22828;BMP180;11580;52.562;13.418;2023-02-20T01:29:51;101020.00;;;8.40
22828;BMP180;11580;52.562;13.418;2023-02-20T01:32:19;101057.00;;;8.50
22828;BMP180;11580;52.562;13.418;2023-02-20T01:34:46;101041.00;;;8.50
22828;BMP180;11580;52.562;13.418;2023-02-20T01:37:15;101030.00;;;8.60
22828;BMP180;11580;52.562;13.418;2023-02-20T01:39:45;101038.00;;;8.70
22828;BMP180;11580;52.562;13.418;2023-02-20T01:42:19;101029.00;;;8.80
22828;BMP180;11580;52.562;13.418;2023-02-20T01:44:47;101036.00;;;8.90
22828;BMP180;11580;52.562;13.418;2023-02-20T01:47:18;101029.00;;;8.90
22828;BMP180;11580;52.562;13.418;2023-02-20T01:49:51;101018.00;;;9.00
22828;BMP180;11580;52.562;13.418;2023-02-20T01:52:23;101012.00;;;9.10
22828;BMP180;11580;52.562;13.418;2023-02-20T01:54:57;101006.00;;;9.10
22828;BMP180;11580;52.562;13.418;2023-02-20T01:57:29;100979.00;;;9.20
22828;BMP180;11580;52.562;13.418;2023-02-20T02:00:06;100963.00;;;9.20
22828;BMP180;11580;52.562;13.418;2023-02-20T02:02:48;100977.00;;;9.20
22828;BMP180;11580;52.562;13.418;2023-02-20T02:05:17;100975.00;;;9.30
22828;BMP180;11580;52.562;13.418;2023-02-20T02:07:45;100971.00;;;9.30
22828;BMP180;11580;52.562;13.418;2023-02-20T02:10:15;100977.00;;;9.30
22828;BMP180;11580;52.562;13.418;2023-02-20T02:12:48;100972.00;;;9.30
22828;BMP180;11580;52.562;13.418;2023-02-20T02:15:20;100974.00;;;9.30
22828;BMP180;11580;52.562;13.418;2023-02-20T02:18:23;100976.00;;;9.30
22828;BMP180;11580;52.562;13.418;2023-02-20T02:24:42;100973.00;;;9.30
22828;BMP180;11580;52.562;13.418;2023-02-20T02:31:04;100976.00;;;9.40
22828;BMP180;11580;52.562;13.418;2023-02-20T02:34:33;100956.00;;;9.40
22828;BMP180;11580;52.562;13.418;2023-02-20T02:37:17;100968.00;;;9.40
22828;BMP180;11580;52.562;13.418;2023-02-20T02:40:00;100956.00;;;9.50
22828;BMP180;11580;52.562;13.418;2023-02-20T02:42:40;100946.00;;;9.50
22828;BMP180;11580;52.562;13.418;2023-02-20T02:45:16;100929.00;;;9.50
22828;BMP180;11580;52.562;13.418;2023-02-20T02:47:51;100933.00;;;9.50
22828;BMP180;11580;52.562;13.418;2023-02-20T02:50:30;100929.00;;;9.60
22828;BMP180;11580;52.562;13.418;2023-02-20T02:53:00;100932.00;;;9.60
22828;BMP180;11580;52.562;13.418;2023-02-20T02:55:31;100917.00;;;9.60
22828;BMP180;11580;52.562;13.418;2023-02-20T02:57:59;100911.00;;;9.60
22828;BMP180;11580;52.562;13.418;2023-02-20T03:00:32;100932.00;;;9.70
22828;BMP180;11580;52.562;13.418;2023-02-20T03:03:09;100924.00;;;9.70
22828;BMP180;11580;52.562;13.418;2023-02-20T03:05:44;100914.00;;;9.70
22828;BMP180;11580;52.562;13.418;2023-02-20T03:08:23;100917.00;;;9.80
22828;BMP180;11580;52.562;13.418;2023-02-20T03:11:01;100911.00;;;9.80
22828;BMP180;11580;52.562;13.418;2023-02-20T03:13:37;100906.00;;;9.80
22828;BMP180;11580;52.562;13.418;2023-02-20T03:16:31;100890.00;;;9.90
22828;BMP180;11580;52.562;13.418;2023-02-20T03:19:03;100893.00;;;9.90
22828;BMP180;11580;52.562;13.418;2023-02-20T03:21:33;100894.00;;;9.90
22828;BMP180;11580;52.562;13.418;2023-02-20T03:24:06;100886.00;;;9.90
22828;BMP180;11580;52.562;13.418;2023-02-20T03:26:38;100884.00;;;10.00
22828;BMP180;11580;52.562;13.418;2023-02-20T03:29:13;100880.00;;;10.00
22828;BMP180;11580;52.562;13.418;2023-02-20T03:31:49;100874.00;;;10.00
22828;BMP180;11580;52.562;13.418;2023-02-20T03:34:36;100860.00;;;10.00
22828;BMP180;11580;52.562;13.418;2023-02-20T03:37:25;100852.00;;;10.10
22828;BMP180;11580;52.562;13.418;2023-02-20T03:40:15;100847.00;;;10.10
22828;BMP180;11580;52.562;13.418;2023-02-20T03:43:07;100855.00;;;10.10
22828;BMP180;11580;52.562;13.418;2023-02-20T03:45:51;100829.00;;;10.20
22828;BMP180;11580;52.562;13.418;2023-02-20T03:48:25;100837.00;;;10.20
22828;BMP180;11580;52.562;13.418;2023-02-20T03:50:56;100861.00;;;10.30
22828;BMP180;11580;52.562;13.418;2023-02-20T03:53:49;100862.00;;;10.30
22828;BMP180;11580;52.562;13.418;2023-02-20T03:56:24;100866.00;;;10.30
22828;BMP180;11580;52.562;13.418;2023-02-20T03:58:59;100871.00;;;10.30
22828;BMP180;11580;52.562;13.418;2023-02-20T04:01:28;100872.00;;;10.30
22828;BMP180;11580;52.562;13.418;2023-02-20T04:03:57;100858.00;;;10.40
22828;BMP180;11580;52.562;13.418;2023-02-20T04:06:30;100867.00;;;10.40
22828;BMP180;11580;52.562;13.418;2023-02-20T04:09:02;100867.00;;;10.40
22828;BMP180;11580;52.562;13.418;2023-02-20T04:11:38;100833.00;;;10.50
22828;BMP180;11580;52.562;13.418;2023-02-20T04:14:08;100851.00;;;10.50
22828;BMP180;11580;52.562;13.418;2023-02-20T04:16:46;100852.00;;;10.50
22828;BMP180;11580;52.562;13.418;2023-02-20T04:19:15;100851.00;;;10.50
22828;BMP180;11580;52.562;13.418;2023-02-20T04:21:50;100851.00;;;10.50
22828;BMP180;11580;52.562;13.418;2023-02-20T04:24:25;100837.00;;;10.60
22828;BMP180;11580;52.562;13.418;2023-02-20T04:26:56;100837.00;;;10.60
22828;BMP180;11580;52.562;13.418;2023-02-20T04:29:24;100835.00;;;10.60
22828;BMP180;11580;52.562;13.418;2023-02-20T04:31:54;100823.00;;;10.60
22828;BMP180;11580;52.562;13.418;2023-02-20T04:34:24;100819.00;;;10.60
22828;BMP180;11580;52.562;13.418;2023-02-20T04:37:02;100811.00;;;10.60
22828;BMP180;11580;52.562;13.418;2023-02-20T04:39:30;100815.00;;;10.70
22828;BMP180;11580;52.562;13.418;2023-02-20T04:42:00;100816.00;;;10.70
22828;BMP180;11580;52.562;13.418;2023-02-20T04:44:27;100808.00;;;10.70
22828;BMP180;11580;52.562;13.418;2023-02-20T04:47:01;100802.00;;;10.70
22828;BMP180;11580;52.562;13.418;2023-02-20T04:49:29;100799.00;;;10.70
22828;BMP180;11580;52.562;13.418;2023-02-20T04:51:59;100797.00;;;10.70
22828;BMP180;11580;52.562;13.418;2023-02-20T04:54:28;100791.00;;;10.80
22828;BMP180;11580;52.562;13.418;2023-02-20T04:56:55;100773.00;;;10.80
22828;BMP180;11580;52.562;13.418;2023-02-20T04:59:24;100797.00;;;10.80
22828;BMP180;11580;52.562;13.418;2023-02-20T05:01:51;100770.00;;;10.80
22828;BMP180;11580;52.562;13.418;2023-02-20T05:04:21;100772.00;;;10.80
22828;BMP180;11580;52.562;13.418;2023-02-20T05:06:52;100777.00;;;10.90
22828;BMP180;11580;52.562;13.418;2023-02-20T05:09:20;100768.00;;;10.90
22828;BMP180;11580;52.562;13.418;2023-02-20T05:11:48;100762.00;;;10.90
22828;BMP180;11580;52.562;13.418;2023-02-20T05:14:15;100747.00;;;11.00
22828;BMP180;11580;52.562;13.418;2023-02-20T05:16:44;100739.00;;;11.00
22828;BMP180;11580;52.562;13.418;2023-02-20T05:19:12;100745.00;;;11.00
22828;BMP180;11580;52.562;13.418;2023-02-20T05:21:41;100736.00;;;11.00
22828;BMP180;11580;52.562;13.418;2023-02-20T05:24:26;100754.00;;;11.00
22828;BMP180;11580;52.562;13.418;2023-02-20T05:26:55;100749.00;;;11.10
22828;BMP180;11580;52.562;13.418;2023-02-20T05:29:22;100748.00;;;11.10
22828;BMP180;11580;52.562;13.418;2023-02-20T05:31:50;100755.00;;;11.10
22828;BMP180;11580;52.562;13.418;2023-02-20T05:34:18;100741.00;;;11.10
22828;BMP180;11580;52.562;13.418;2023-02-20T05:36:46;100748.00;;;11.20
22828;BMP180;11580;52.562;13.418;2023-02-20T05:39:13;100752.00;;;11.20
22828;BMP180;11580;52.562;13.418;2023-02-20T05:41:40;100744.00;;;11.20
22828;BMP180;11580;52.562;13.418;2023-02-20T05:44:07;100744.00;;;11.30
22828;BMP180;11580;52.562;13.418;2023-02-20T05:46:39;100736.00;;;11.30
22828;BMP180;11580;52.562;13.418;2023-02-20T05:49:09;100735.00;;;11.30
22828;BMP180;11580;52.562;13.418;2023-02-20T05:51:37;100725.00;;;11.30
22828;BMP180;11580;52.562;13.418;2023-02-20T05:54:05;100719.00;;;11.30
22828;BMP180;11580;52.562;13.418;2023-02-20T05:56:32;100728.00;;;11.30
22828;BMP180;11580;52.562;13.418;2023-02-20T05:59:00;100715.00;;;11.30
22828;BMP180;11580;52.562;13.418;2023-02-20T06:01:30;100709.00;;;11.30
22828;BMP180;11580;52.562;13.418;2023-02-20T06:03:57;100693.00;;;11.30
22828;BMP180;11580;52.562;13.418;2023-02-20T06:06:33;100682.00;;;11.30
22828;BMP180;11580;52.562;13.418;2023-02-20T06:09:01;100683.00;;;11.30
22828;BMP180;11580;52.562;13.418;2023-02-20T06:11:29;100688.00;;;11.30
22828;BMP180;11580;52.562;13.418;2023-02-20T06:13:56;100683.00;;;11.30
22828;BMP180;11580;52.562;13.418;2023-02-20T06:16:25;100661.00;;;11.30
22828;BMP180;11580;52.562;13.418;2023-02-20T06:18:54;100666.00;;;11.30
22828;BMP180;11580;52.562;13.418;2023-02-20T06:21:22;100667.00;;;11.30
22828;BMP180;11580;52.562;13.418;2023-02-20T06:23:54;100664.00;;;11.30
22828;BMP180;11580;52.562;13.418;2023-02-20T06:26:22;100665.00;;;11.30
22828;BMP180;11580;52.562;13.418;2023-02-20T06:28:49;100671.00;;;11.30
22828;BMP180;11580;52.562;13.418;2023-02-20T06:31:22;100669.00;;;11.30
22828;BMP180;11580;52.562;13.418;2023-02-20T06:33:50;100669.00;;;11.30
22828;BMP180;11580;52.562;13.418;2023-02-20T06:36:20;100652.00;;;11.30
22828;BMP180;11580;52.562;13.418;2023-02-20T06:38:48;100653.00;;;11.30
22828;BMP180;11580;52.562;13.418;2023-02-20T06:41:17;100646.00;;;11.30
22828;BMP180;11580;52.562;13.418;2023-02-20T06:43:44;100649.00;;;11.40
22828;BMP180;11580;52.562;13.418;2023-02-20T06:46:11;100650.00;;;11.40
22828;BMP180;11580;52.562;13.418;2023-02-20T06:48:44;100649.00;;;11.40
22828;BMP180;11580;52.562;13.418;2023-02-20T06:51:11;100639.00;;;11.40
22828;BMP180;11580;52.562;13.418;2023-02-20T06:53:38;100631.00;;;11.40
22828;BMP180;11580;52.562;13.418;2023-02-20T06:56:09;100655.00;;;11.40
22828;BMP180;11580;52.562;13.418;2023-02-20T06:58:38;100656.00;;;11.40
22828;BMP180;11580;52.562;13.418;2023-02-20T07:01:05;100653.00;;;11.40
22828;BMP180;11580;52.562;13.418;2023-02-20T07:03:32;100640.00;;;11.40
22828;BMP180;11580;52.562;13.418;2023-02-20T07:05:59;100648.00;;;11.50
22828;BMP180;11580;52.562;13.418;2023-02-20T07:08:26;100621.00;;;11.50
22828;BMP180;11580;52.562;13.418;2023-02-20T07:10:53;100643.00;;;11.50
22828;BMP180;11580;52.562;13.418;2023-02-20T07:13:21;100596.00;;;11.50
22828;BMP180;11580;52.562;13.418;2023-02-20T07:15:50;100617.00;;;11.50
22828;BMP180;11580;52.562;13.418;2023-02-20T07:18:17;100617.00;;;11.50
22828;BMP180;11580;52.562;13.418;2023-02-20T07:20:48;100622.00;;;11.50
22828;BMP180;11580;52.562;13.418;2023-02-20T07:23:16;100621.00;;;11.50
22828;BMP180;11580;52.562;13.418;2023-02-20T07:25:43;100607.00;;;11.60
22828;BMP180;11580;52.562;13.418;2023-02-20T07:28:10;100609.00;;;11.60
22828;BMP180;11580;52.562;13.418;2023-02-20T07:30:37;100620.00;;;11.70
22828;BMP180;11580;52.562;13.418;2023-02-20T07:33:06;100626.00;;;11.70
22828;BMP180;11580;52.562;13.418;2023-02-20T07:35:33;100626.00;;;11.70
22828;BMP180;11580;52.562;13.418;2023-02-20T07:38:04;100627.00;;;11.80
22828;BMP180;11580;52.562;13.418;2023-02-20T07:40:31;100619.00;;;11.80
22828;BMP180;11580;52.562;13.418;2023-02-20T07:42:58;100612.00;;;11.80
22828;BMP180;11580;52.562;13.418;2023-02-20T07:45:28;100600.00;;;11.90
22828;BMP180;11580;52.562;13.418;2023-02-20T07:47:55;100591.00;;;11.90
22828;BMP180;11580;52.562;13.418;2023-02-20T07:50:24;100579.00;;;12.00
22828;BMP180;11580;52.562;13.418;2023-02-20T07:52:51;100579.00;;;12.00
22828;BMP180;11580;52.562;13.418;2023-02-20T07:55:19;100564.00;;;12.00
22828;BMP180;11580;52.562;13.418;2023-02-20T07:57:48;100571.00;;;12.00
22828;BMP180;11580;52.562;13.418;2023-02-20T08:00:20;100591.00;;;12.10
22828;BMP180;11580;52.562;13.418;2023-02-20T08:02:48;100607.00;;;12.10
22828;BMP180;11580;52.562;13.418;2023-02-20T08:05:15;100583.00;;;12.10
22828;BMP180;11580;52.562;13.418;2023-02-20T08:07:49;100560.00;;;12.20
22828;BMP180;11580;52.562;13.418;2023-02-20T08:10:20;100555.00;;;12.20
22828;BMP180;11580;52.562;13.418;2023-02-20T08:12:50;100551.00;;;12.20
22828;BMP180;11580;52.562;13.418;2023-02-20T08:15:18;100546.00;;;12.30
22828;BMP180;11580;52.562;13.418;2023-02-20T08:17:45;100536.00;;;12.30
22828;BMP180;11580;52.562;13.418;2023-02-20T08:20:14;100537.00;;;12.40
22828;BMP180;11580;52.562;13.418;2023-02-20T08:22:43;100540.00;;;12.40
22828;BMP180;11580;52.562;13.418;2023-02-20T08:25:12;100536.00;;;12.40
22828;BMP180;11580;52.562;13.418;2023-02-20T08:27:42;100527.00;;;12.40
22828;BMP180;11580;52.562;13.418;2023-02-20T08:30:12;100513.00;;;12.50
22828;BMP180;11580;52.562;13.418;2023-02-20T08:32:40;100510.00;;;12.50
22828;BMP180;11580;52.562;13.418;2023-02-20T08:35:07;100502.00;;;12.50
22828;BMP180;11580;52.562;13.418;2023-02-20T08:37:34;100496.00;;;12.50
22828;BMP180;11580;52.562;13.418;2023-02-20T08:40:02;100491.00;;;12.50
22828;BMP180;11580;52.562;13.418;2023-02-20T08:42:33;100493.00;;;12.60
22828;BMP180;11580;52.562;13.418;2023-02-20T08:45:00;100482.00;;;12.60
22828;BMP180;11580;52.562;13.418;2023-02-20T08:47:28;100480.00;;;12.60
22828;BMP180;11580;52.562;13.418;2023-02-20T08:49:55;100475.00;;;12.70
22828;BMP180;11580;52.562;13.418;2023-02-20T08:52:22;100476.00;;;12.70
22828;BMP180;11580;52.562;13.418;2023-02-20T08:54:49;100468.00;;;12.80
22828;BMP180;11580;52.562;13.418;2023-02-20T08:57:17;100457.00;;;12.80
22828;BMP180;11580;52.562;13.418;2023-02-20T08:59:46;100448.00;;;12.90
22828;BMP180;11580;52.562;13.418;2023-02-20T09:02:17;100450.00;;;12.90
22828;BMP180;11580;52.562;13.418;2023-02-20T09:04:45;100439.00;;;13.00
22828;BMP180;11580;52.562;13.418;2023-02-20T09:07:13;100429.00;;;13.00
22828;BMP180;11580;52.562;13.418;2023-02-20T09:09:40;100435.00;;;13.10
22828;BMP180;11580;52.562;13.418;2023-02-20T09:12:08;100424.00;;;13.20
22828;BMP180;11580;52.562;13.418;2023-02-20T09:14:36;100424.00;;;13.20
22828;BMP180;11580;52.562;13.418;2023-02-20T09:17:05;100411.00;;;13.30
22828;BMP180;11580;52.562;13.418;2023-02-20T09:19:32;100411.00;;;13.30
22828;BMP180;11580;52.562;13.418;2023-02-20T09:22:00;100378.00;;;13.40
22828;BMP180;11580;52.562;13.418;2023-02-20T09:24:27;100386.00;;;13.50
22828;BMP180;11580;52.562;13.418;2023-02-20T09:26:59;100380.00;;;13.60
22828;BMP180;11580;52.562;13.418;2023-02-20T09:29:26;100390.00;;;13.60
22828;BMP180;11580;52.562;13.418;2023-02-20T09:31:53;100380.00;;;13.70
22828;BMP180;11580;52.562;13.418;2023-02-20T09:34:22;100366.00;;;13.80
22828;BMP180;11580;52.562;13.418;2023-02-20T09:36:50;100366.00;;;13.90
22828;BMP180;11580;52.562;13.418;2023-02-20T09:39:17;100371.00;;;13.90
22828;BMP180;11580;52.562;13.418;2023-02-20T09:42:11;100358.00;;;14.00
22828;BMP180;11580;52.562;13.418;2023-02-20T09:44:55;100366.00;;;14.10
22828;BMP180;11580;52.562;13.418;2023-02-20T09:47:44;100365.00;;;14.20
22828;BMP180;11580;52.562;13.418;2023-02-20T09:50:23;100364.00;;;14.20
22828;BMP180;11580;52.562;13.418;2023-02-20T09:53:00;100365.00;;;14.30
22828;BMP180;11580;52.562;13.418;2023-02-20T09:55:35;100346.00;;;14.30
22828;BMP180;11580;52.562;13.418;2023-02-20T09:58:06;100363.00;;;14.40
22828;BMP180;11580;52.562;13.418;2023-02-20T10:00:38;100357.00;;;14.40
22828;BMP180;11580;52.562;13.418;2023-02-20T10:03:19;100361.00;;;14.50
22828;BMP180;11580;52.562;13.418;2023-02-20T10:05:48;100364.00;;;14.50
22828;BMP180;11580;52.562;13.418;2023-02-20T10:08:19;100350.00;;;14.60
22828;BMP180;11580;52.562;13.418;2023-02-20T10:10:49;100355.00;;;14.70
22828;BMP180;11580;52.562;13.418;2023-02-20T10:13:46;100349.00;;;14.70
22828;BMP180;11580;52.562;13.418;2023-02-20T10:16:29;100345.00;;;14.80
22828;BMP180;11580;52.562;13.418;2023-02-20T10:19:12;100333.00;;;14.80
22828;BMP180;11580;52.562;13.418;2023-02-20T10:21:55;100321.00;;;14.90
22828;BMP180;11580;52.562;13.418;2023-02-20T10:24:43;100334.00;;;14.90
22828;BMP180;11580;52.562;13.418;2023-02-20T10:27:26;100324.00;;;14.90
22828;BMP180;11580;52.562;13.418;2023-02-20T10:29:55;100317.00;;;14.90
22828;BMP180;11580;52.562;13.418;2023-02-20T10:32:29;100318.00;;;15.00
22828;BMP180;11580;52.562;13.418;2023-02-20T10:35:04;100313.00;;;15.10
22828;BMP180;11580;52.562;13.418;2023-02-20T10:37:39;100320.00;;;15.10
22828;BMP180;11580;52.562;13.418;2023-02-20T10:40:18;100335.00;;;15.20
22828;BMP180;11580;52.562;13.418;2023-02-20T10:42:52;100333.00;;;15.30
22828;BMP180;11580;52.562;13.418;2023-02-20T10:45:29;100321.00;;;15.40
22828;BMP180;11580;52.562;13.418;2023-02-20T10:48:05;100318.00;;;15.50
22828;BMP180;11580;52.562;13.418;2023-02-20T10:50:39;100317.00;;;15.60
22828;BMP180;11580;52.562;13.418;2023-02-20T10:53:20;100313.00;;;15.70
22828;BMP180;11580;52.562;13.418;2023-02-20T10:55:55;100305.00;;;15.80
22828;BMP180;11580;52.562;13.418;2023-02-20T10:58:31;100306.00;;;15.80
22828;BMP180;11580;52.562;13.418;2023-02-20T11:01:04;100302.00;;;15.90
22828;BMP180;11580;52.562;13.418;2023-02-20T11:03:40;100283.00;;;15.90
22828;BMP180;11580;52.562;13.418;2023-02-20T11:06:17;100298.00;;;16.00
22828;BMP180;11580;52.562;13.418;2023-02-20T11:08:48;100276.00;;;16.00
22828;BMP180;11580;52.562;13.418;2023-02-20T11:11:29;100309.00;;;16.00
22828;BMP180;11580;52.562;13.418;2023-02-20T11:13:59;100302.00;;;16.00
22828;BMP180;11580;52.562;13.418;2023-02-20T11:16:31;100302.00;;;16.00
22828;BMP180;11580;52.562;13.418;2023-02-20T11:19:19;100300.00;;;15.90
22828;BMP180;11580;52.562;13.418;2023-02-20T11:21:49;100299.00;;;15.90
22828;BMP180;11580;52.562;13.418;2023-02-20T11:24:34;100269.00;;;15.80
22828;BMP180;11580;52.562;13.418;2023-02-20T11:27:07;100297.00;;;15.70
22828;BMP180;11580;52.562;13.418;2023-02-20T11:29:47;100300.00;;;15.70
22828;BMP180;11580;52.562;13.418;2023-02-20T11:32:28;100292.00;;;15.70
22828;BMP180;11580;52.562;13.418;2023-02-20T11:35:32;100302.00;;;15.60
22828;BMP180;11580;52.562;13.418;2023-02-20T11:38:30;100296.00;;;15.50
22828;BMP180;11580;52.562;13.418;2023-02-20T11:41:27;100291.00;;;15.40
22828;BMP180;11580;52.562;13.418;2023-02-20T11:44:22;100288.00;;;15.40
22828;BMP180;11580;52.562;13.418;2023-02-20T11:47:19;100286.00;;;15.30
22828;BMP180;11580;52.562;13.418;2023-02-20T11:49:47;100288.00;;;15.30
22828;BMP180;11580;52.562;13.418;2023-02-20T11:52:17;100280.00;;;15.20
22828;BMP180;11580;52.562;13.418;2023-02-20T11:54:46;100276.00;;;15.20
22828;BMP180;11580;52.562;13.418;2023-02-20T11:57:26;100272.00;;;15.20
22828;BMP180;11580;52.562;13.418;2023-02-20T12:00:13;100272.00;;;15.20
22828;BMP180;11580;52.562;13.418;2023-02-20T12:02:54;100272.00;;;15.10
22828;BMP180;11580;52.562;13.418;2023-02-20T12:05:37;100277.00;;;15.10
22828;BMP180;11580;52.562;13.418;2023-02-20T12:08:30;100285.00;;;15.00
22828;BMP180;11580;52.562;13.418;2023-02-20T12:11:04;100278.00;;;15.00
22828;BMP180;11580;52.562;13.418;2023-02-20T12:13:41;100281.00;;;15.00
22828;BMP180;11580;52.562;13.418;2023-02-20T12:16:55;100252.00;;;14.90
22828;BMP180;11580;52.562;13.418;2023-02-20T12:19:40;100268.00;;;14.90
22828;BMP180;11580;52.562;13.418;2023-02-20T12:22:23;100284.00;;;14.90
22828;BMP180;11580;52.562;13.418;2023-02-20T12:25:18;100276.00;;;14.90
22828;BMP180;11580;52.562;13.418;2023-02-20T12:28:03;100269.00;;;14.90
22828;BMP180;11580;52.562;13.418;2023-02-20T12:31:00;100274.00;;;15.00
22828;BMP180;11580;52.562;13.418;2023-02-20T12:33:49;100263.00;;;14.90
22828;BMP180;11580;52.562;13.418;2023-02-20T12:36:30;100270.00;;;14.90
22828;BMP180;11580;52.562;13.418;2023-02-20T12:39:06;100223.00;;;15.00
22828;BMP180;11580;52.562;13.418;2023-02-20T12:41:58;100259.00;;;15.00
22828;BMP180;11580;52.562;13.418;2023-02-20T12:44:57;100257.00;;;14.90
22828;BMP180;11580;52.562;13.418;2023-02-20T12:47:31;100254.00;;;15.00
22828;BMP180;11580;52.562;13.418;2023-02-20T12:50:23;100272.00;;;15.00
22828;BMP180;11580;52.562;13.418;2023-02-20T12:53:09;100277.00;;;15.00
22828;BMP180;11580;52.562;13.418;2023-02-20T12:55:51;100281.00;;;15.00
22828;BMP180;11580;52.562;13.418;2023-02-20T12:58:37;100256.00;;;15.00
22828;BMP180;11580;52.562;13.418;2023-02-20T13:01:12;100278.00;;;15.00
22828;BMP180;11580;52.562;13.418;2023-02-20T13:03:51;100271.00;;;15.00
22828;BMP180;11580;52.562;13.418;2023-02-20T13:06:31;100260.00;;;15.00
22828;BMP180;11580;52.562;13.418;2023-02-20T13:09:08;100265.00;;;14.90
22828;BMP180;11580;52.562;13.418;2023-02-20T13:11:42;100258.00;;;14.90
22828;BMP180;11580;52.562;13.418;2023-02-20T13:14:27;100265.00;;;14.80
22828;BMP180;11580;52.562;13.418;2023-02-20T13:17:11;100271.00;;;14.80
22828;BMP180;11580;52.562;13.418;2023-02-20T13:19:51;100277.00;;;14.80
22828;BMP180;11580;52.562;13.418;2023-02-20T13:22:21;100261.00;;;14.70
22828;BMP180;11580;52.562;13.418;2023-02-20T13:24:48;100262.00;;;14.60
22828;BMP180;11580;52.562;13.418;2023-02-20T13:27:29;100267.00;;;14.60
22828;BMP180;11580;52.562;13.418;2023-02-20T13:29:59;100263.00;;;14.50
22828;BMP180;11580;52.562;13.418;2023-02-20T13:32:29;100260.00;;;14.40
22828;BMP180;11580;52.562;13.418;2023-02-20T13:35:33;100260.00;;;14.30
22828;BMP180;11580;52.562;13.418;2023-02-20T13:38:10;100257.00;;;14.30
22828;BMP180;11580;52.562;13.418;2023-02-20T13:40:41;100269.00;;;14.20
22828;BMP180;11580;52.562;13.418;2023-02-20T13:43:24;100250.00;;;14.10
22828;BMP180;11580;52.562;13.418;2023-02-20T13:46:10;100258.00;;;14.10
22828;BMP180;11580;52.562;13.418;2023-02-20T13:48:41;100262.00;;;14.10
22828;BMP180;11580;52.562;13.418;2023-02-20T13:51:34;100272.00;;;14.00
22828;BMP180;11580;52.562;13.418;2023-02-20T13:54:23;100269.00;;;13.90
22828;BMP180;11580;52.562;13.418;2023-02-20T13:56:56;100268.00;;;14.00
22828;BMP180;11580;52.562;13.418;2023-02-20T13:59:28;100276.00;;;14.00
22828;BMP180;11580;52.562;13.418;2023-02-20T14:02:03;100260.00;;;14.00
22828;BMP180;11580;52.562;13.418;2023-02-20T14:04:31;100271.00;;;14.00
22828;BMP180;11580;52.562;13.418;2023-02-20T14:07:00;100268.00;;;14.00
22828;BMP180;11580;52.562;13.418;2023-02-20T14:09:29;100259.00;;;14.00
22828;BMP180;11580;52.562;13.418;2023-02-20T14:12:06;100262.00;;;13.90
22828;BMP180;11580;52.562;13.418;2023-02-20T14:14:42;100268.00;;;14.00
22828;BMP180;11580;52.562;13.418;2023-02-20T14:17:15;100257.00;;;14.00
22828;BMP180;11580;52.562;13.418;2023-02-20T14:19:45;100272.00;;;14.00
22828;BMP180;11580;52.562;13.418;2023-02-20T14:22:26;100258.00;;;14.00
22828;BMP180;11580;52.562;13.418;2023-02-20T14:25:31;100259.00;;;13.90
22828;BMP180;11580;52.562;13.418;2023-02-20T14:28:10;100274.00;;;13.90
22828;BMP180;11580;52.562;13.418;2023-02-20T14:30:38;100253.00;;;13.90